Time;durP1;ratioP1;P1;durP2;ratioP2;P2;SDS_P1;SDS_P2;PMS_P1;PMS_P2;Temp;Humidity;BMP_temperature;BMP_pressure;BME280_temperature;BME280_humidity;BME280_pressure;Samples;Min_cycle;Max_cycle;Signal;HPM_P1;HPM_P2
2021/07/07 00:01:18;;;;;;;4.13;2.03;;;;;;;;;;5084299;28;20520;-72
2021/07/07 00:03:45;;;;;;;3.47;2.63;;;;;;;;;;5096406;28;20489;-72
2021/07/07 00:06:12;;;;;;;3.53;2.30;;;;;;;;;;5096744;28;20473;-72
2021/07/07 00:08:41;;;;;;;9.43;2.40;;;;;;;;;;5096275;28;20451;-72
2021/07/07 00:11:08;;;;;;;4.47;2.50;;;;;;;;;;5096375;28;20955;-71
2021/07/07 00:13:35;;;;;;;6.17;2.40;;;;;;;;;;5096486;28;20439;-72
2021/07/07 00:16:03;;;;;;;3.40;2.33;;;;;;;;;;5097014;28;20441;-72
2021/07/07 00:18:30;;;;;;;2.30;2.10;;;;;;;;;;5092763;28;20464;-72
2021/07/07 00:20:58;;;;;;;4.27;2.30;;;;;;;;;;5084917;28;20437;-72
2021/07/07 00:23:25;;;;;;;4.63;2.47;;;;;;;;;;5086875;28;20515;-70
2021/07/07 00:25:54;;;;;;;5.73;3.00;;;;;;;;;;5095787;28;21008;-71
2021/07/07 00:28:22;;;;;;;4.43;2.20;;;;;;;;;;5096018;28;20442;-72
2021/07/07 00:30:50;;;;;;;5.03;2.60;;;;;;;;;;5083015;28;20473;-72
2021/07/07 00:33:18;;;;;;;3.67;2.50;;;;;;;;;;5076039;28;20445;-72
2021/07/07 00:35:45;;;;;;;6.23;3.23;;;;;;;;;;5075988;28;20473;-72
2021/07/07 00:38:13;;;;;;;7.47;2.77;;;;;;;;;;5075488;28;20563;-71
2021/07/07 00:40:40;;;;;;;2.80;2.53;;;;;;;;;;5078099;28;20463;-72
2021/07/07 00:43:09;;;;;;;4.43;2.97;;;;;;;;;;5084604;28;20442;-71
2021/07/07 00:45:36;;;;;;;3.73;2.47;;;;;;;;;;5087599;28;20431;-72
2021/07/07 00:48:04;;;;;;;3.57;3.23;;;;;;;;;;5096211;28;20545;-72
2021/07/07 00:50:31;;;;;;;3.40;3.00;;;;;;;;;;5095842;28;20437;-72
2021/07/07 00:52:58;;;;;;;6.00;3.20;;;;;;;;;;5095258;28;20455;-72
2021/07/07 00:55:26;;;;;;;3.83;3.53;;;;;;;;;;5095814;28;20509;-72
2021/07/07 00:57:53;;;;;;;5.83;3.00;;;;;;;;;;5096196;28;20509;-72
2021/07/07 01:00:23;;;;;;;7.03;2.70;;;;;;;;;;5095408;28;20514;-72
2021/07/07 01:02:52;;;;;;;3.10;2.80;;;;;;;;;;5095263;28;20539;-73
2021/07/07 01:05:20;;;;;;;3.40;2.77;;;;;;;;;;5095608;28;20442;-72
2021/07/07 01:07:47;;;;;;;5.47;3.10;;;;;;;;;;5089169;28;20514;-73
2021/07/07 01:10:15;;;;;;;5.60;3.27;;;;;;;;;;5081935;28;20434;-73
2021/07/07 01:12:42;;;;;;;3.80;2.60;;;;;;;;;;5091197;28;20439;-73
2021/07/07 01:15:11;;;;;;;4.20;3.20;;;;;;;;;;5095379;28;20471;-73
2021/07/07 01:17:40;;;;;;;6.27;2.80;;;;;;;;;;5096041;28;20540;-72
2021/07/07 01:20:08;;;;;;;4.63;2.97;;;;;;;;;;5075279;28;20505;-73
2021/07/07 01:22:37;;;;;;;4.53;3.00;;;;;;;;;;5075086;28;20802;-73
2021/07/07 01:25:05;;;;;;;6.77;2.90;;;;;;;;;;5074360;28;20532;-72
2021/07/07 01:27:32;;;;;;;8.40;4.70;;;;;;;;;;5074636;28;20442;-72
2021/07/07 01:29:59;;;;;;;4.93;2.77;;;;;;;;;;5074698;28;20469;-72
2021/07/07 01:32:27;;;;;;;6.97;3.40;;;;;;;;;;5074525;28;21063;-73
2021/07/07 01:34:54;;;;;;;5.20;3.63;;;;;;;;;;5074324;28;20985;-73
2021/07/07 01:37:22;;;;;;;6.47;2.80;;;;;;;;;;5075001;28;20440;-72
2021/07/07 01:39:51;;;;;;;7.33;3.70;;;;;;;;;;5078678;28;20480;-72
2021/07/07 01:42:18;;;;;;;7.60;3.83;;;;;;;;;;5094872;28;20440;-73
2021/07/07 01:44:46;;;;;;;5.67;3.70;;;;;;;;;;5094854;28;20432;-72
2021/07/07 01:47:13;;;;;;;5.33;3.60;;;;;;;;;;5094022;28;20457;-73
2021/07/07 01:49:40;;;;;;;6.57;2.70;;;;;;;;;;5094748;28;20793;-73
2021/07/07 01:52:07;;;;;;;6.23;3.33;;;;;;;;;;5094746;28;20463;-72
2021/07/07 01:54:34;;;;;;;5.13;3.70;;;;;;;;;;5085438;28;20893;-73
2021/07/07 01:57:03;;;;;;;9.70;3.97;;;;;;;;;;5078723;28;20476;-72
2021/07/07 01:59:30;;;;;;;4.03;3.63;;;;;;;;;;5083278;28;20478;-73
2021/07/07 02:01:58;;;;;;;5.73;4.00;;;;;;;;;;5092023;28;20856;-73
2021/07/07 02:04:25;;;;;;;7.23;4.53;;;;;;;;;;5074240;28;20438;-73
2021/07/07 02:06:52;;;;;;;6.97;4.87;;;;;;;;;;5076694;28;20880;-72
2021/07/07 02:09:20;;;;;;;4.70;4.30;;;;;;;;;;5082921;28;20513;-73
2021/07/07 02:11:47;;;;;;;6.27;5.73;;;;;;;;;;5084898;28;20434;-73
2021/07/07 02:14:16;;;;;;;6.50;4.70;;;;;;;;;;5074593;28;20792;-73
2021/07/07 02:16:43;;;;;;;6.67;4.67;;;;;;;;;;5073684;28;20951;-72
2021/07/07 02:19:10;;;;;;;9.50;5.50;;;;;;;;;;5091968;28;20508;-73
2021/07/07 02:21:37;;;;;;;13.00;5.07;;;;;;;;;;5093912;28;20959;-73
2021/07/07 02:24:05;;;;;;;5.17;4.67;;;;;;;;;;5093799;28;20448;-72
2021/07/07 02:26:32;;;;;;;9.30;4.07;;;;;;;;;;5084699;28;20457;-73
2021/07/07 02:29:00;;;;;;;6.37;4.23;;;;;;;;;;5075887;28;20495;-73
2021/07/07 02:31:28;;;;;;;7.33;4.20;;;;;;;;;;5073817;28;20831;-72
2021/07/07 02:33:55;;;;;;;7.53;4.13;;;;;;;;;;5073713;28;20448;-72
2021/07/07 02:36:23;;;;;;;5.40;3.90;;;;;;;;;;5073490;28;20444;-71
2021/07/07 02:38:50;;;;;;;5.37;4.50;;;;;;;;;;5073655;28;20479;-72
2021/07/07 02:41:17;;;;;;;6.60;4.43;;;;;;;;;;5073874;28;20678;-74
2021/07/07 02:43:44;;;;;;;7.47;3.73;;;;;;;;;;5084844;28;20456;-74
2021/07/07 02:46:12;;;;;;;8.30;3.80;;;;;;;;;;5078774;28;20436;-74
2021/07/07 02:48:40;;;;;;;6.20;3.80;;;;;;;;;;5093844;28;20551;-74
2021/07/07 02:51:07;;;;;;;6.10;3.30;;;;;;;;;;5093838;28;20462;-74
2021/07/07 02:53:34;;;;;;;12.37;4.70;;;;;;;;;;5086569;28;20886;-74
2021/07/07 02:56:02;;;;;;;14.23;4.13;;;;;;;;;;5081138;28;20453;-74
2021/07/07 02:58:29;;;;;;;6.97;3.17;;;;;;;;;;5088563;28;20528;-74
2021/07/07 03:00:56;;;;;;;7.37;4.13;;;;;;;;;;5093432;28;20479;-74
2021/07/07 03:03:25;;;;;;;4.87;3.50;;;;;;;;;;5093425;28;20540;-74
2021/07/07 03:05:54;;;;;;;6.77;3.43;;;;;;;;;;5094125;28;20440;-74
2021/07/07 03:08:23;;;;;;;5.67;3.67;;;;;;;;;;5093623;28;20435;-73
2021/07/07 03:10:50;;;;;;;4.53;3.43;;;;;;;;;;5093251;28;20438;-73
2021/07/07 03:13:18;;;;;;;4.93;3.17;;;;;;;;;;5073321;28;20468;-74
2021/07/07 03:15:46;;;;;;;4.17;3.87;;;;;;;;;;5078218;28;20454;-73
2021/07/07 03:18:14;;;;;;;5.30;4.13;;;;;;;;;;5090982;28;20484;-73
2021/07/07 03:20:42;;;;;;;7.00;4.00;;;;;;;;;;5072698;28;20480;-73
2021/07/07 03:23:11;;;;;;;5.83;3.73;;;;;;;;;;5073385;28;20444;-73
2021/07/07 03:25:38;;;;;;;5.70;4.90;;;;;;;;;;5081856;28;20500;-74
2021/07/07 03:28:06;;;;;;;5.97;4.20;;;;;;;;;;5093655;28;20436;-74
2021/07/07 03:30:34;;;;;;;5.57;4.77;;;;;;;;;;5088975;28;20826;-74
2021/07/07 03:33:01;;;;;;;4.80;3.93;;;;;;;;;;5072920;28;20472;-73
2021/07/07 03:35:29;;;;;;;5.67;3.90;;;;;;;;;;5073184;28;20520;-73
2021/07/07 03:37:56;;;;;;;7.77;3.70;;;;;;;;;;5075451;28;20444;-72
2021/07/07 03:40:25;;;;;;;5.07;4.30;;;;;;;;;;5076882;28;20476;-72
2021/07/07 03:42:52;;;;;;;9.77;4.40;;;;;;;;;;5076645;28;20872;-72
2021/07/07 03:45:20;;;;;;;5.20;3.20;;;;;;;;;;5077735;28;20523;-73
2021/07/07 03:47:48;;;;;;;7.23;4.83;;;;;;;;;;5076558;28;20456;-72
2021/07/07 03:50:15;;;;;;;5.83;4.20;;;;;;;;;;5077202;28;20444;-72
2021/07/07 03:52:43;;;;;;;5.67;4.20;;;;;;;;;;5076528;28;20462;-72
2021/07/07 03:55:11;;;;;;;5.50;4.50;;;;;;;;;;5076790;28;20567;-73
2021/07/07 03:57:40;;;;;;;6.40;4.43;;;;;;;;;;5076761;28;20460;-72
2021/07/07 04:00:08;;;;;;;4.30;3.90;;;;;;;;;;5076262;28;20472;-72
2021/07/07 04:02:36;;;;;;;7.13;4.67;;;;;;;;;;5077233;28;20482;-73
2021/07/07 04:05:03;;;;;;;5.40;4.10;;;;;;;;;;5076195;28;20436;-72
2021/07/07 04:07:30;;;;;;;14.27;4.77;;;;;;;;;;5076143;28;20526;-74
2021/07/07 04:09:58;;;;;;;8.67;4.87;;;;;;;;;;5076215;28;20487;-73
2021/07/07 04:12:25;;;;;;;7.57;4.13;;;;;;;;;;5076253;28;20443;-73
2021/07/07 04:14:53;;;;;;;8.23;4.47;;;;;;;;;;5093365;28;20462;-70
2021/07/07 04:17:21;;;;;;;4.53;4.10;;;;;;;;;;5096639;28;20547;-71
2021/07/07 04:19:48;;;;;;;7.03;4.50;;;;;;;;;;5096205;28;20481;-71
2021/07/07 04:22:15;;;;;;;10.20;4.53;;;;;;;;;;5091013;28;20448;-70
2021/07/07 04:24:42;;;;;;;8.37;4.73;;;;;;;;;;5080004;28;20463;-71
2021/07/07 04:27:10;;;;;;;9.50;4.73;;;;;;;;;;5096353;28;20441;-71
2021/07/07 04:29:37;;;;;;;16.60;5.40;;;;;;;;;;5096156;28;20543;-71
2021/07/07 04:32:06;;;;;;;9.33;4.70;;;;;;;;;;5075953;28;20548;-71
2021/07/07 04:34:33;;;;;;;5.40;4.53;;;;;;;;;;5075960;28;20607;-71
2021/07/07 04:37:01;;;;;;;7.07;4.33;;;;;;;;;;5084706;28;20534;-70
2021/07/07 04:39:29;;;;;;;7.93;5.13;;;;;;;;;;5095650;28;20491;-71
2021/07/07 04:41:56;;;;;;;10.73;4.57;;;;;;;;;;5096065;28;20534;-71
2021/07/07 04:44:23;;;;;;;9.80;4.87;;;;;;;;;;5091180;28;20980;-70
2021/07/07 04:46:50;;;;;;;6.30;4.40;;;;;;;;;;5075744;28;20536;-71
2021/07/07 04:49:19;;;;;;;7.90;4.10;;;;;;;;;;5075446;28;20452;-71
2021/07/07 04:51:46;;;;;;;8.27;4.47;;;;;;;;;;5079408;28;20522;-70
2021/07/07 04:54:13;;;;;;;5.73;3.90;;;;;;;;;;5075320;28;20569;-70
2021/07/07 04:56:40;;;;;;;9.37;4.83;;;;;;;;;;5075558;28;20437;-71
2021/07/07 04:59:08;;;;;;;7.13;4.70;;;;;;;;;;5075408;28;20521;-71
2021/07/07 05:01:36;;;;;;;9.73;4.60;;;;;;;;;;5075076;28;20478;-71
2021/07/07 05:04:04;;;;;;;5.30;3.83;;;;;;;;;;5078495;28;20487;-71
2021/07/07 05:06:33;;;;;;;8.03;4.00;;;;;;;;;;5095612;28;20467;-71
2021/07/07 05:09:00;;;;;;;4.60;3.77;;;;;;;;;;5095424;28;20489;-70
2021/07/07 05:11:27;;;;;;;8.37;3.93;;;;;;;;;;5090225;28;20821;-71
2021/07/07 05:13:54;;;;;;;6.63;3.47;;;;;;;;;;5077176;28;20934;-69
2021/07/07 05:16:21;;;;;;;5.30;3.13;;;;;;;;;;5084035;28;20534;-70
2021/07/07 05:18:49;;;;;;;8.73;4.27;;;;;;;;;;5088647;28;20545;-69
2021/07/07 05:21:16;;;;;;;4.20;3.17;;;;;;;;;;5094966;28;20981;-69
2021/07/07 05:23:44;;;;;;;5.97;3.03;;;;;;;;;;5075065;28;20913;-69
2021/07/07 05:26:12;;;;;;;7.13;3.30;;;;;;;;;;5074818;28;20518;-69
2021/07/07 05:28:39;;;;;;;6.47;3.47;;;;;;;;;;5075095;28;20446;-69
2021/07/07 05:31:07;;;;;;;7.17;2.90;;;;;;;;;;5074513;28;20459;-70
2021/07/07 05:33:36;;;;;;;8.50;3.33;;;;;;;;;;5083638;28;20443;-70
2021/07/07 05:36:04;;;;;;;5.73;3.10;;;;;;;;;;5087301;28;20429;-70
2021/07/07 05:38:31;;;;;;;8.20;3.33;;;;;;;;;;5074466;28;20490;-71
2021/07/07 05:40:59;;;;;;;10.67;3.67;;;;;;;;;;5074326;28;21077;-70
2021/07/07 05:43:27;;;;;;;7.30;3.47;;;;;;;;;;5081888;28;20543;-70
2021/07/07 05:45:54;;;;;;;8.83;3.80;;;;;;;;;;5077098;28;20429;-71
2021/07/07 05:48:21;;;;;;;4.90;3.07;;;;;;;;;;5083805;28;20561;-70
2021/07/07 05:50:49;;;;;;;7.40;3.20;;;;;;;;;;5074952;28;20447;-70
2021/07/07 05:53:16;;;;;;;6.47;3.13;;;;;;;;;;5074048;28;20882;-70
2021/07/07 05:55:43;;;;;;;5.40;3.13;;;;;;;;;;5074289;28;20486;-71
2021/07/07 05:58:12;;;;;;;7.30;3.10;;;;;;;;;;5074053;28;20470;-70
2021/07/07 06:00:39;;;;;;;8.00;3.23;;;;;;;;;;5073616;28;20476;-70
2021/07/07 06:03:06;;;;;;;8.20;3.50;;;;;;;;;;5083956;28;20919;-70
2021/07/07 06:05:34;;;;;;;11.23;3.90;;;;;;;;;;5081829;28;20491;-70
2021/07/07 06:08:01;;;;;;;6.20;2.70;;;;;;;;;;5073665;28;20463;-70
2021/07/07 06:10:28;;;;;;;8.00;3.40;;;;;;;;;;5073934;28;20528;-70
2021/07/07 06:12:56;;;;;;;8.50;3.23;;;;;;;;;;5082008;28;20466;-71
2021/07/07 06:15:25;;;;;;;7.07;4.03;;;;;;;;;;5076157;28;20525;-70
2021/07/07 06:17:52;;;;;;;11.33;5.40;;;;;;;;;;5087267;28;20493;-71
2021/07/07 06:20:20;;;;;;;9.10;3.03;;;;;;;;;;5077547;28;20475;-70
2021/07/07 06:22:47;;;;;;;10.03;3.40;;;;;;;;;;5090778;28;20467;-70
2021/07/07 06:25:15;;;;;;;15.20;3.37;;;;;;;;;;5094344;28;20453;-69
2021/07/07 06:27:42;;;;;;;5.93;3.13;;;;;;;;;;5085482;28;20462;-72
2021/07/07 06:30:11;;;;;;;5.30;3.50;;;;;;;;;;5090091;28;20542;-71
2021/07/07 06:32:40;;;;;;;7.37;3.40;;;;;;;;;;5093518;28;20845;-68
2021/07/07 06:35:08;;;;;;;12.33;3.73;;;;;;;;;;5090629;28;20818;-70
2021/07/07 06:37:35;;;;;;;8.83;3.97;;;;;;;;;;5082189;28;20438;-69
2021/07/07 06:40:02;;;;;;;7.13;3.33;;;;;;;;;;5073184;28;20569;-69
2021/07/07 06:42:30;;;;;;;5.00;3.50;;;;;;;;;;5073371;28;20504;-69
2021/07/07 06:44:58;;;;;;;8.00;4.00;;;;;;;;;;5073323;28;20457;-69
2021/07/07 06:47:25;;;;;;;12.70;3.53;;;;;;;;;;5078078;28;20458;-69
2021/07/07 06:49:53;;;;;;;6.97;3.43;;;;;;;;;;5079789;28;20537;-69
2021/07/07 06:52:21;;;;;;;8.93;3.70;;;;;;;;;;5085895;28;20527;-69
2021/07/07 06:54:48;;;;;;;8.87;3.47;;;;;;;;;;5078553;28;20496;-69
2021/07/07 06:57:16;;;;;;;5.80;2.97;;;;;;;;;;5074120;28;20496;-72
2021/07/07 06:59:43;;;;;;;6.07;3.07;;;;;;;;;;5073466;28;20524;-70
2021/07/07 07:02:10;;;;;;;7.83;3.80;;;;;;;;;;5084598;28;20447;-69
2021/07/07 07:04:38;;;;;;;6.47;2.73;;;;;;;;;;5093608;28;20543;-71
2021/07/07 07:07:06;;;;;;;7.97;3.03;;;;;;;;;;5094189;28;20473;-70
2021/07/07 07:09:33;;;;;;;5.80;3.50;;;;;;;;;;5093825;28;20534;-70
2021/07/07 07:12:01;;;;;;;13.87;3.23;;;;;;;;;;5096296;28;20482;-70
2021/07/07 07:14:28;;;;;;;9.90;4.53;;;;;;;;;;5089469;28;20533;-69
2021/07/07 07:16:55;;;;;;;13.53;3.63;;;;;;;;;;5077134;28;20470;-69
2021/07/07 07:19:22;;;;;;;6.87;3.63;;;;;;;;;;5077365;28;20949;-69
2021/07/07 07:21:50;;;;;;;6.97;4.30;;;;;;;;;;5077019;28;20573;-69
2021/07/07 07:24:18;;;;;;;5.50;3.30;;;;;;;;;;5092493;28;20933;-69
2021/07/07 07:26:45;;;;;;;8.10;3.07;;;;;;;;;;5097520;28;20446;-70
2021/07/07 07:29:13;;;;;;;10.53;3.93;;;;;;;;;;5083955;28;20550;-70
2021/07/07 07:31:40;;;;;;;9.13;2.90;;;;;;;;;;5077137;28;20453;-69
2021/07/07 07:34:08;;;;;;;12.80;3.77;;;;;;;;;;5078601;28;20994;-70
2021/07/07 07:36:35;;;;;;;7.20;3.60;;;;;;;;;;5096501;28;20524;-70
2021/07/07 07:39:04;;;;;;;8.33;3.33;;;;;;;;;;5097077;28;20990;-69
2021/07/07 07:41:34;;;;;;;7.33;3.70;;;;;;;;;;5094922;28;20483;-69
2021/07/07 07:44:02;;;;;;;6.50;3.10;;;;;;;;;;5077312;28;20440;-69
2021/07/07 07:46:30;;;;;;;9.50;3.73;;;;;;;;;;5076468;28;20458;-70
2021/07/07 07:48:59;;;;;;;8.10;4.10;;;;;;;;;;5076552;28;20542;-69
2021/07/07 07:51:26;;;;;;;7.50;3.30;;;;;;;;;;5077297;28;20455;-69
2021/07/07 07:53:54;;;;;;;14.60;4.23;;;;;;;;;;5081291;28;20592;-69
2021/07/07 07:56:21;;;;;;;8.43;3.23;;;;;;;;;;5082823;28;20474;-69
2021/07/07 07:58:49;;;;;;;6.73;3.30;;;;;;;;;;5093236;28;20514;-69
2021/07/07 08:01:17;;;;;;;9.13;3.43;;;;;;;;;;5094819;28;20472;-69
2021/07/07 08:03:44;;;;;;;10.63;3.70;;;;;;;;;;5087000;28;20820;-69
2021/07/07 08:06:12;;;;;;;7.70;3.27;;;;;;;;;;5083070;28;20443;-69
2021/07/07 08:08:39;;;;;;;9.27;2.93;;;;;;;;;;5096129;28;20550;-69
2021/07/07 08:11:06;;;;;;;7.50;3.30;;;;;;;;;;5096620;28;20448;-69
2021/07/07 08:13:33;;;;;;;4.37;2.73;;;;;;;;;;5086112;28;20483;-69
2021/07/07 08:16:02;;;;;;;6.30;3.40;;;;;;;;;;5093788;28;20463;-69
2021/07/07 08:18:29;;;;;;;7.37;3.47;;;;;;;;;;5080957;28;20459;-69
2021/07/07 08:20:57;;;;;;;5.40;2.80;;;;;;;;;;5092510;28;20547;-69
2021/07/07 08:23:26;;;;;;;7.17;3.43;;;;;;;;;;5075518;28;20460;-70
2021/07/07 08:25:53;;;;;;;7.97;3.70;;;;;;;;;;5076121;28;20497;-69
2021/07/07 08:28:21;;;;;;;7.03;3.27;;;;;;;;;;5076022;28;20476;-69
2021/07/07 08:30:48;;;;;;;11.50;3.00;;;;;;;;;;5075564;28;21031;-69
2021/07/07 08:33:17;;;;;;;5.30;3.23;;;;;;;;;;5075845;28;20448;-68
2021/07/07 08:35:45;;;;;;;8.73;3.30;;;;;;;;;;5089981;28;20473;-68
2021/07/07 08:38:12;;;;;;;11.60;4.33;;;;;;;;;;5095340;28;20792;-69
2021/07/07 08:40:39;;;;;;;11.00;3.40;;;;;;;;;;5095761;28;20507;-69
2021/07/07 08:43:09;;;;;;;8.60;3.80;;;;;;;;;;5095710;28;20451;-69
2021/07/07 08:45:36;;;;;;;5.47;3.50;;;;;;;;;;5095909;28;20466;-69
2021/07/07 08:48:04;;;;;;;7.13;3.23;;;;;;;;;;5095319;28;20501;-68
2021/07/07 08:50:34;;;;;;;6.93;2.97;;;;;;;;;;5096096;28;20518;-69
2021/07/07 08:53:03;;;;;;;7.40;3.40;;;;;;;;;;5093565;28;20448;-69
2021/07/07 08:55:30;;;;;;;7.23;3.10;;;;;;;;;;5084637;28;20476;-69
2021/07/07 08:57:58;;;;;;;6.03;3.23;;;;;;;;;;5082874;28;20503;-69
2021/07/07 09:00:31;;;;;;;6.20;2.53;;;;;;;;;;5075348;28;20447;-68
2021/07/07 09:02:59;;;;;;;7.07;3.20;;;;;;;;;;5076024;28;20768;-68
2021/07/07 09:05:27;;;;;;;8.67;3.57;;;;;;;;;;5084813;28;20487;-69
2021/07/07 09:07:57;;;;;;;5.27;2.47;;;;;;;;;;5077203;28;20436;-69
2021/07/07 09:10:28;;;;;;;5.87;2.50;;;;;;;;;;5082647;28;20969;-69
2021/07/07 09:12:56;;;;;;;8.57;2.90;;;;;;;;;;5075374;28;20778;-69
2021/07/07 09:15:23;;;;;;;9.07;2.87;;;;;;;;;;5079277;28;20451;-69
2021/07/07 09:17:52;;;;;;;3.87;2.73;;;;;;;;;;5089142;28;20964;-68
2021/07/07 09:20:21;;;;;;;7.53;4.27;;;;;;;;;;5082129;28;20463;-69
2021/07/07 09:22:49;;;;;;;17.17;3.57;;;;;;;;;;5083647;28;20505;-69
2021/07/07 09:25:20;;;;;;;9.80;3.17;;;;;;;;;;5084368;28;20490;-69
2021/07/07 09:27:47;;;;;;;10.03;2.87;;;;;;;;;;5075087;28;20421;-69
2021/07/07 09:30:16;;;;;;;7.10;3.63;;;;;;;;;;5074589;28;20440;-69
2021/07/07 09:32:44;;;;;;;8.90;3.80;;;;;;;;;;5079622;28;20474;-69
2021/07/07 09:35:11;;;;;;;7.30;3.10;;;;;;;;;;5073909;28;20487;-72
2021/07/07 09:37:42;;;;;;;4.90;2.70;;;;;;;;;;5074215;28;20494;-70
2021/07/07 09:40:11;;;;;;;7.47;2.60;;;;;;;;;;5074740;28;20824;-69
2021/07/07 09:42:40;;;;;;;10.50;3.53;;;;;;;;;;5074651;28;20516;-69
2021/07/07 09:45:08;;;;;;;83.00;21.50;;;;;;;;;;5074686;28;20543;-69
2021/07/07 09:47:36;;;;;;;10.93;3.60;;;;;;;;;;5074957;28;20491;-69
2021/07/07 09:50:05;;;;;;;11.33;4.13;;;;;;;;;;5073844;28;20508;-69
2021/07/07 09:52:33;;;;;;;8.20;3.60;;;;;;;;;;5074443;28;21018;-69
2021/07/07 09:55:02;;;;;;;8.80;3.17;;;;;;;;;;5075475;28;20477;-68
2021/07/07 09:57:29;;;;;;;12.47;4.00;;;;;;;;;;5094346;28;20990;-68
2021/07/07 09:59:58;;;;;;;5.37;2.67;;;;;;;;;;5084293;28;20457;-67
2021/07/07 10:02:25;;;;;;;5.07;3.20;;;;;;;;;;5078995;28;20473;-66
2021/07/07 10:04:53;;;;;;;4.77;2.80;;;;;;;;;;5086808;28;20477;-66
2021/07/07 10:07:21;;;;;;;10.10;3.90;;;;;;;;;;5084452;28;20485;-65
2021/07/07 10:09:49;;;;;;;3.33;2.50;;;;;;;;;;5094967;28;20516;-67
2021/07/07 10:12:18;;;;;;;5.70;2.43;;;;;;;;;;5094458;28;20532;-72
2021/07/07 10:14:46;;;;;;;8.30;2.70;;;;;;;;;;5094271;28;20479;-67
2021/07/07 10:17:15;;;;;;;5.40;2.70;;;;;;;;;;5094364;28;20528;-67
2021/07/07 10:19:42;;;;;;;9.10;2.73;;;;;;;;;;5093779;28;20539;-68
2021/07/07 10:22:10;;;;;;;10.47;2.70;;;;;;;;;;5094219;28;20856;-68
2021/07/07 10:24:37;;;;;;;3.53;3.00;;;;;;;;;;5078984;28;20523;-67
2021/07/07 10:27:07;;;;;;;5.13;2.40;;;;;;;;;;5073685;28;20822;-68
2021/07/07 10:29:35;;;;;;;6.80;2.70;;;;;;;;;;5073704;28;20822;-67
2021/07/07 10:32:05;;;;;;;3.13;2.70;;;;;;;;;;5073413;28;20915;-68
2021/07/07 10:34:34;;;;;;;4.77;2.50;;;;;;;;;;5073679;28;20480;-67
2021/07/07 10:37:02;;;;;;;5.00;2.50;;;;;;;;;;5078493;28;20449;-68
2021/07/07 10:39:30;;;;;;;6.33;2.00;;;;;;;;;;5094416;28;20494;-68
2021/07/07 10:41:58;;;;;;;3.87;2.57;;;;;;;;;;5094274;28;20807;-68
2021/07/07 10:44:44;;;;;;;4.90;3.23;;;;;;;;;;5093924;28;20452;-68
2021/07/07 10:47:12;;;;;;;6.47;2.60;;;;;;;;;;5093879;28;20432;-68
2021/07/07 10:49:41;;;;;;;7.10;2.70;;;;;;;;;;5077865;28;20457;-68
2021/07/07 10:52:09;;;;;;;5.83;2.63;;;;;;;;;;5073552;28;20496;-68
2021/07/07 10:54:38;;;;;;;6.10;2.80;;;;;;;;;;5078696;28;20565;-68
2021/07/07 10:57:07;;;;;;;7.63;2.30;;;;;;;;;;5073564;28;20455;-68
2021/07/07 10:59:35;;;;;;;6.40;3.00;;;;;;;;;;5073294;28;20544;-68
2021/07/07 11:02:07;;;;;;;7.23;2.73;;;;;;;;;;5073585;28;20570;-68
2021/07/07 11:04:35;;;;;;;5.70;2.70;;;;;;;;;;5073198;28;20468;-67
2021/07/07 11:07:20;;;;;;;3.80;2.97;;;;;;;;;;5084508;28;20465;-68
2021/07/07 11:09:52;;;;;;;4.60;2.47;;;;;;;;;;5093641;28;20533;-68
2021/07/07 11:12:20;;;;;;;4.30;2.70;;;;;;;;;;5093506;28;20445;-68
2021/07/07 11:14:59;;;;;;;12.10;3.00;;;;;;;;;;5086640;28;20454;-68
2021/07/07 11:17:32;;;;;;;9.57;2.60;;;;;;;;;;5077301;28;20427;-68
2021/07/07 11:20:00;;;;;;;5.13;2.53;;;;;;;;;;5087960;28;20457;-68
2021/07/07 11:22:28;;;;;;;5.50;2.77;;;;;;;;;;5082023;28;20473;-69
2021/07/07 11:24:58;;;;;;;7.50;2.70;;;;;;;;;;5091213;28;20461;-70
2021/07/07 11:27:25;;;;;;;5.60;2.83;;;;;;;;;;5088307;28;20966;-71
2021/07/07 11:29:53;;;;;;;4.60;2.47;;;;;;;;;;5082551;28;20488;-71
2021/07/07 11:32:24;;;;;;;9.77;2.80;;;;;;;;;;5075399;28;20963;-71
2021/07/07 11:34:52;;;;;;;6.37;2.90;;;;;;;;;;5085967;28;20491;-70
2021/07/07 11:37:24;;;;;;;6.73;2.70;;;;;;;;;;5073194;28;20493;-71
2021/07/07 11:40:06;;;;;;;7.97;4.00;;;;;;;;;;5072984;28;20449;-71
2021/07/07 11:42:33;;;;;;;6.47;2.83;;;;;;;;;;5086693;28;20524;-71
2021/07/07 11:45:01;;;;;;;5.47;2.43;;;;;;;;;;5092981;28;20945;-70
2021/07/07 11:47:30;;;;;;;7.50;2.70;;;;;;;;;;5092528;28;20945;-71
2021/07/07 11:50:08;;;;;;;4.23;2.70;;;;;;;;;;5079761;28;20537;-71
2021/07/07 11:52:35;;;;;;;4.20;2.50;;;;;;;;;;5072650;28;20441;-71
2021/07/07 11:55:02;;;;;;;3.73;2.47;;;;;;;;;;5072650;28;20575;-71
2021/07/07 11:57:36;;;;;;;7.97;2.30;;;;;;;;;;5073840;28;20494;-71
2021/07/07 12:00:03;;;;;;;6.13;2.10;;;;;;;;;;5082210;28;20531;-71
2021/07/07 12:02:31;;;;;;;6.13;2.60;;;;;;;;;;5086874;28;20541;-71
2021/07/07 12:05:05;;;;;;;6.87;2.60;;;;;;;;;;5076944;28;20445;-71
2021/07/07 12:07:32;;;;;;;11.90;4.07;;;;;;;;;;5083660;28;20535;-70
2021/07/07 12:09:59;;;;;;;19.60;3.27;;;;;;;;;;5096744;28;20439;-71
2021/07/07 12:12:30;;;;;;;4.17;2.30;;;;;;;;;;5093510;28;20544;-70
2021/07/07 12:14:58;;;;;;;6.90;3.47;;;;;;;;;;5076139;28;20444;-71
2021/07/07 12:17:26;;;;;;;6.30;2.50;;;;;;;;;;5076184;28;20480;-71
2021/07/07 12:19:53;;;;;;;9.87;3.30;;;;;;;;;;5095434;28;20814;-71
2021/07/07 12:22:21;;;;;;;4.87;1.97;;;;;;;;;;5096403;28;20476;-71
2021/07/07 12:24:49;;;;;;;10.00;2.40;;;;;;;;;;5089838;28;20456;-71
2021/07/07 12:27:21;;;;;;;5.83;2.33;;;;;;;;;;5078533;28;20450;-70
2021/07/07 12:29:49;;;;;;;8.27;2.60;;;;;;;;;;5083756;28;20451;-70
2021/07/07 12:32:23;;;;;;;4.03;2.60;;;;;;;;;;5076586;28;20441;-70
2021/07/07 12:34:51;;;;;;;7.20;2.87;;;;;;;;;;5082917;28;20447;-70
2021/07/07 12:37:19;;;;;;;6.00;2.53;;;;;;;;;;5096371;28;20448;-70
2021/07/07 12:39:49;;;;;;;5.60;2.40;;;;;;;;;;5093303;28;20469;-70
2021/07/07 12:42:23;;;;;;;5.57;2.40;;;;;;;;;;5075787;28;20482;-70
2021/07/07 12:44:50;;;;;;;4.30;2.47;;;;;;;;;;5075382;28;20420;-70
2021/07/07 12:47:18;;;;;;;3.47;2.23;;;;;;;;;;5075192;28;20462;-71
2021/07/07 12:49:48;;;;;;;12.27;3.47;;;;;;;;;;5076009;28;20808;-70
2021/07/07 12:52:19;;;;;;;3.90;2.00;;;;;;;;;;5075366;28;20461;-70
2021/07/07 12:54:47;;;;;;;6.00;2.73;;;;;;;;;;5075513;28;20568;-70
2021/07/07 12:57:14;;;;;;;4.50;2.17;;;;;;;;;;5075161;28;20939;-71
2021/07/07 12:59:54;;;;;;;6.20;2.87;;;;;;;;;;5086092;28;20773;-69
2021/07/07 13:02:21;;;;;;;6.30;2.27;;;;;;;;;;5084916;28;20471;-71
2021/07/07 13:04:50;;;;;;;4.43;2.77;;;;;;;;;;5082505;28;20459;-69
2021/07/07 13:07:23;;;;;;;4.17;2.20;;;;;;;;;;5075626;28;20479;-69
2021/07/07 13:09:56;;;;;;;5.10;2.10;;;;;;;;;;5085221;28;20448;-69
2021/07/07 13:12:27;;;;;;;11.20;3.00;;;;;;;;;;5075194;28;20437;-68
2021/07/07 13:14:56;;;;;;;5.00;2.50;;;;;;;;;;5085670;28;20461;-69
2021/07/07 13:17:29;;;;;;;4.10;2.50;;;;;;;;;;5095258;28;20488;-68
2021/07/07 13:20:00;;;;;;;6.33;2.67;;;;;;;;;;5091061;28;20531;-68
2021/07/07 13:22:28;;;;;;;5.63;2.63;;;;;;;;;;5083508;28;20509;-68
2021/07/07 13:24:55;;;;;;;6.17;2.80;;;;;;;;;;5086994;28;20493;-68
2021/07/07 13:27:23;;;;;;;4.00;2.13;;;;;;;;;;5075293;28;20498;-68
2021/07/07 13:29:58;;;;;;;3.37;2.70;;;;;;;;;;5081546;28;20461;-68
2021/07/07 13:32:26;;;;;;;3.60;2.73;;;;;;;;;;5094644;28;20456;-68
2021/07/07 13:34:56;;;;;;;6.20;2.90;;;;;;;;;;5095005;28;20476;-68
2021/07/07 13:37:25;;;;;;;4.03;2.67;;;;;;;;;;5085341;28;20854;-68
2021/07/07 13:39:54;;;;;;;6.17;3.37;;;;;;;;;;5074466;28;20447;-67
2021/07/07 13:42:22;;;;;;;3.87;2.47;;;;;;;;;;5073870;28;20810;-68
2021/07/07 13:44:49;;;;;;;5.83;3.10;;;;;;;;;;5083507;28;20433;-69
2021/07/07 13:47:16;;;;;;;6.87;2.50;;;;;;;;;;5088122;28;20450;-68
2021/07/07 13:49:44;;;;;;;3.10;2.67;;;;;;;;;;5074287;28;20535;-68
2021/07/07 13:52:11;;;;;;;5.63;3.07;;;;;;;;;;5073830;28;20465;-68
2021/07/07 13:54:41;;;;;;;3.63;2.80;;;;;;;;;;5073889;28;20478;-68
2021/07/07 13:57:08;;;;;;;6.73;2.50;;;;;;;;;;5079757;28;20549;-68
2021/07/07 13:59:36;;;;;;;3.67;2.77;;;;;;;;;;5077235;28;20451;-68
2021/07/07 14:02:03;;;;;;;2.53;2.10;;;;;;;;;;5073760;28;20452;-69
2021/07/07 14:04:31;;;;;;;4.03;2.27;;;;;;;;;;5082742;28;20454;-69
2021/07/07 14:06:58;;;;;;;3.80;2.27;;;;;;;;;;5087544;28;20501;-68
2021/07/07 14:09:26;;;;;;;4.53;2.40;;;;;;;;;;5087723;28;20528;-68
2021/07/07 14:11:54;;;;;;;5.83;2.63;;;;;;;;;;5094610;28;20528;-68
2021/07/07 14:14:22;;;;;;;3.43;2.47;;;;;;;;;;5094060;28;20413;-68
2021/07/07 14:16:54;;;;;;;6.40;3.10;;;;;;;;;;5093910;28;20479;-68
2021/07/07 14:19:21;;;;;;;3.53;2.10;;;;;;;;;;5094255;28;20755;-69
2021/07/07 14:21:48;;;;;;;5.23;2.60;;;;;;;;;;5089973;28;20460;-68
2021/07/07 14:24:16;;;;;;;3.93;2.37;;;;;;;;;;5084763;28;20953;-68
2021/07/07 14:26:43;;;;;;;6.07;2.50;;;;;;;;;;5082626;28;20461;-68
2021/07/07 14:29:12;;;;;;;4.80;2.77;;;;;;;;;;5088646;28;20434;-68
2021/07/07 14:31:39;;;;;;;6.20;2.60;;;;;;;;;;5094027;28;20441;-68
2021/07/07 14:34:06;;;;;;;3.53;2.50;;;;;;;;;;5094302;28;20802;-68
2021/07/07 14:36:34;;;;;;;5.70;3.13;;;;;;;;;;5090545;28;20629;-68
2021/07/07 14:39:03;;;;;;;5.63;2.60;;;;;;;;;;5084886;28;20477;-68
2021/07/07 14:41:31;;;;;;;6.00;2.50;;;;;;;;;;5081574;28;20439;-68
2021/07/07 14:43:58;;;;;;;3.70;2.70;;;;;;;;;;5082460;28;20453;-68
2021/07/07 14:46:27;;;;;;;4.90;2.70;;;;;;;;;;5080925;28;20452;-69